Time;durP1;ratioP1;P1;durP2;ratioP2;P2;SDS_P1;SDS_P2;PMS_P1;PMS_P2;Temp;Humidity;BMP_temperature;BMP_pressure;BME280_temperature;BME280_humidity;BME280_pressure;Samples;Min_cycle;Max_cycle;Signal;HPM_P1;HPM_P2
2024/02/08 00:01:02;;;;;;;10.30;4.32;;;;;;;0.82;100.00;100509.47;6083211;19;20003;-72
2024/02/08 00:03:10;;;;;;;9.15;4.35;;;;;;;0.80;100.00;100517.22;6084739;19;20338;-72
2024/02/08 00:05:16;;;;;;;8.20;3.95;;;;;;;0.79;100.00;100523.28;6084565;19;20598;-71
2024/02/08 00:07:19;;;;;;;11.45;5.75;;;;;;;0.78;100.00;100528.44;6086086;19;20011;-71
2024/02/08 00:09:27;;;;;;;10.30;4.75;;;;;;;0.75;100.00;100526.75;6082408;19;19999;-72
2024/02/08 00:11:33;;;;;;;11.10;4.90;;;;;;;0.75;100.00;100529.31;6085097;19;20014;-71
2024/02/08 00:13:38;;;;;;;7.93;4.93;;;;;;;0.74;100.00;100531.91;6086768;19;20420;-73
2024/02/08 00:15:42;;;;;;;7.60;4.18;;;;;;;0.72;100.00;100529.34;6085286;19;20368;-72
2024/02/08 00:17:48;;;;;;;6.53;4.20;;;;;;;0.71;100.00;100535.41;6086029;19;20114;-71
2024/02/08 00:19:53;;;;;;;9.40;4.55;;;;;;;0.69;100.00;100534.53;6086633;19;20038;-73
2024/02/08 00:22:01;;;;;;;10.52;4.47;;;;;;;0.64;100.00;100537.13;6085970;19;20345;-73
2024/02/08 00:24:07;;;;;;;8.93;3.75;;;;;;;0.63;100.00;100531.97;6086143;19;20003;-71
2024/02/08 00:26:17;;;;;;;8.65;4.07;;;;;;;0.66;100.00;100524.22;6087582;19;20326;-71
2024/02/08 00:28:22;;;;;;;7.43;4.93;;;;;;;0.67;100.00;100536.25;6086370;19;20014;-71
2024/02/08 00:30:28;;;;;;;8.40;4.40;;;;;;;0.65;100.00;100520.75;6084441;19;20368;-72
2024/02/08 00:32:33;;;;;;;9.93;4.43;;;;;;;0.63;100.00;100516.44;6084294;19;20031;-72
2024/02/08 00:34:38;;;;;;;11.95;4.72;;;;;;;0.65;100.00;100509.56;6081298;19;20435;-71
2024/02/08 00:36:44;;;;;;;7.90;4.78;;;;;;;0.73;100.00;100502.59;6081230;19;20074;-75
2024/02/08 00:38:49;;;;;;;8.60;4.32;;;;;;;0.81;100.00;100493.06;6084526;19;20014;-73
2024/02/08 00:40:55;;;;;;;7.80;4.35;;;;;;;0.90;100.00;100494.75;6083997;19;19999;-75
2024/02/08 00:43:05;;;;;;;7.82;4.03;;;;;;;0.83;100.00;100493.06;6085670;19;20022;-73
2024/02/08 00:45:14;;;;;;;7.60;3.92;;;;;;;0.78;100.00;100493.09;6083642;19;20003;-73
2024/02/08 00:47:19;;;;;;;8.27;4.07;;;;;;;0.73;100.00;100500.03;6084883;19;20121;-73
2024/02/08 00:49:25;;;;;;;12.15;5.05;;;;;;;0.74;100.00;100500.88;6086873;19;20010;-74
2024/02/08 00:51:34;;;;;;;8.40;4.80;;;;;;;0.78;100.00;100497.41;6083900;19;20010;-75
2024/02/08 00:53:43;;;;;;;9.93;4.93;;;;;;;0.78;100.00;100503.44;6078511;19;20014;-73
2024/02/08 00:55:48;;;;;;;7.13;4.32;;;;;;;0.75;100.00;100503.47;6083222;19;20018;-73
2024/02/08 00:57:53;;;;;;;10.55;5.68;;;;;;;0.75;100.00;100508.63;6082112;19;20042;-73
2024/02/08 01:00:01;;;;;;;8.38;4.93;;;;;;;0.73;100.00;100502.59;6084179;19;19998;-75
2024/02/08 01:02:06;;;;;;;12.52;6.53;;;;;;;0.80;100.00;100512.06;6082936;19;20039;-73
2024/02/08 01:04:12;;;;;;;15.45;5.40;;;;;;;0.80;100.00;100508.63;6083114;19;20018;-73
2024/02/08 01:06:18;;;;;;;7.15;4.13;;;;;;;0.77;100.00;100506.91;6082253;19;20082;-72
2024/02/08 01:08:23;;;;;;;7.82;5.45;;;;;;;0.79;100.00;100506.88;6083436;19;20013;-73
2024/02/08 01:10:29;;;;;;;8.23;4.75;;;;;;;0.81;100.00;100503.41;6081036;19;20011;-74
2024/02/08 01:12:34;;;;;;;9.77;5.22;;;;;;;0.82;100.00;100499.97;6079898;19;20023;-72
2024/02/08 01:14:42;;;;;;;11.70;5.38;;;;;;;0.85;100.00;100499.09;6078188;19;20003;-75
2024/02/08 01:16:51;;;;;;;8.98;4.88;;;;;;;0.88;100.00;100497.34;6082505;19;20082;-73
2024/02/08 01:18:57;;;;;;;10.80;5.15;;;;;;;0.92;100.00;100497.31;6083380;19;20029;-74
2024/02/08 01:21:02;;;;;;;9.38;5.55;;;;;;;0.89;100.00;100513.72;6082053;19;20021;-73
2024/02/08 01:23:07;;;;;;;7.88;5.47;;;;;;;0.90;100.00;100512.88;6080595;19;20472;-74
2024/02/08 01:25:12;;;;;;;12.88;5.25;;;;;;;0.94;100.00;100513.69;6082306;19;20070;-74
2024/02/08 01:27:20;;;;;;;10.85;5.22;;;;;;;1.04;100.00;100510.19;6081028;19;20031;-74
2024/02/08 01:29:26;;;;;;;9.23;5.15;;;;;;;1.05;100.00;100511.88;6082388;19;20085;-74
2024/02/08 01:31:37;;;;;;;10.68;6.03;;;;;;;1.06;100.00;100490.34;6078919;19;20017;-74
2024/02/08 01:33:48;;;;;;;12.75;5.57;;;;;;;1.13;100.00;100491.13;6078696;19;20017;-74
2024/02/08 01:35:54;;;;;;;6.32;4.20;;;;;;;1.18;100.00;100490.22;6080965;19;20491;-74
2024/02/08 01:37:59;;;;;;;11.20;5.45;;;;;;;1.24;100.00;100490.19;6079689;19;20023;-74
2024/02/08 01:40:02;;;;;;;9.02;4.55;;;;;;;1.19;100.00;100489.38;6079029;19;20044;-73
2024/02/08 01:42:13;;;;;;;11.02;5.95;;;;;;;1.22;100.00;100478.16;6079666;19;20427;-73
2024/02/08 01:44:21;;;;;;;9.20;5.10;;;;;;;1.18;100.00;100477.28;6080767;19;20007;-73
2024/02/08 01:46:26;;;;;;;8.63;5.18;;;;;;;1.19;100.00;100476.44;6080826;19;20591;-75
2024/02/08 01:48:31;;;;;;;12.88;5.18;;;;;;;1.19;100.00;100473.84;6081545;19;20007;-73
2024/02/08 01:50:44;;;;;;;9.40;4.88;;;;;;;1.19;100.00;100466.09;6082267;19;20011;-74
2024/02/08 01:52:50;;;;;;;11.60;4.18;;;;;;;1.19;100.00;100473.00;5976735;19;2004807;-73
2024/02/08 01:54:56;;;;;;;7.40;4.53;;;;;;;1.24;100.00;100486.75;6079684;19;20082;-74
2024/02/08 01:57:03;;;;;;;9.15;5.40;;;;;;;1.26;100.00;100480.69;6081073;19;20015;-74
2024/02/08 01:59:08;;;;;;;8.57;4.90;;;;;;;1.30;100.00;100492.72;6079134;19;20019;-74
2024/02/08 02:01:15;;;;;;;9.55;5.10;;;;;;;1.30;100.00;100486.69;6080772;19;20015;-73
2024/02/08 02:03:19;;;;;;;11.77;5.50;;;;;;;1.29;100.00;100487.56;6078434;19;20002;-73
2024/02/08 02:05:25;;;;;;;10.00;5.60;;;;;;;1.33;100.00;100488.41;6082626;19;20007;-73
2024/02/08 02:07:30;;;;;;;10.88;5.43;;;;;;;1.34;100.00;100480.59;6082149;19;20011;-74
2024/02/08 02:09:35;;;;;;;6.97;4.38;;;;;;;1.39;100.00;100478.00;6084388;19;20011;-72
2024/02/08 02:11:46;;;;;;;10.23;4.93;;;;;;;1.39;100.00;100473.66;6087240;19;20010;-74
2024/02/08 02:13:51;;;;;;;11.23;6.07;;;;;;;1.38;100.00;100459.00;6087442;19;20040;-74
2024/02/08 02:15:56;;;;;;;7.65;5.22;;;;;;;1.44;100.00;100458.09;6087216;19;20369;-73
2024/02/08 02:18:07;;;;;;;11.60;5.97;;;;;;;1.51;100.00;100458.03;6085524;19;20007;-74
2024/02/08 02:20:18;;;;;;;8.20;5.35;;;;;;;1.53;100.00;100469.22;6088021;19;20018;-73
2024/02/08 02:22:28;;;;;;;7.65;4.28;;;;;;;1.57;100.00;100467.47;6086636;19;20026;-73
2024/02/08 02:24:36;;;;;;;9.52;5.03;;;;;;;1.51;100.00;100470.97;6085331;19;20399;-74
2024/02/08 02:26:41;;;;;;;10.65;6.20;;;;;;;1.50;100.00;100466.69;6086419;19;20448;-75
2024/02/08 02:28:47;;;;;;;10.32;5.32;;;;;;;1.53;100.00;100468.38;6084564;19;20610;-74
2024/02/08 02:30:53;;;;;;;9.10;4.93;;;;;;;1.53;100.00;100460.63;6085631;19;20473;-74
2024/02/08 02:33:00;;;;;;;11.25;5.97;;;;;;;1.51;100.00;100459.75;6082306;19;20010;-72
2024/02/08 02:35:09;;;;;;;10.50;5.10;;;;;;;1.50;100.00;100458.03;6084836;19;20031;-74
2024/02/08 02:37:15;;;;;;;11.38;5.60;;;;;;;1.50;100.00;100453.72;6087162;19;20085;-76
2024/02/08 02:39:26;;;;;;;9.50;5.07;;;;;;;1.48;100.00;100455.47;6083715;19;20050;-73
2024/02/08 02:41:32;;;;;;;12.88;5.03;;;;;;;1.52;100.00;100454.56;6085904;19;20437;-73
2024/02/08 02:43:38;;;;;;;11.07;6.07;;;;;;;1.55;100.00;100453.66;6086344;19;20031;-73
2024/02/08 02:45:44;;;;;;;10.68;5.40;;;;;;;1.53;100.00;100461.47;6084424;19;20006;-73
2024/02/08 02:47:46;;;;;;;7.68;4.75;;;;;;;1.51;100.00;100462.34;6086875;19;20011;-75
2024/02/08 02:49:55;;;;;;;9.38;5.38;;;;;;;1.52;100.00;100461.47;6084682;19;20590;-74
2024/02/08 02:52:00;;;;;;;10.05;5.30;;;;;;;1.50;100.00;100458.03;6084441;19;20039;-76
2024/02/08 02:54:05;;;;;;;12.32;5.10;;;;;;;1.48;100.00;100454.63;6082004;19;20007;-75
2024/02/08 02:56:15;;;;;;;11.95;6.20;;;;;;;1.49;100.00;100456.31;6087668;19;20011;-74
2024/02/08 02:58:20;;;;;;;7.88;4.93;;;;;;;1.52;100.00;100451.97;6088905;19;20472;-73
2024/02/08 03:00:33;;;;;;;9.02;5.57;;;;;;;1.52;100.00;100443.34;6088564;19;20013;-74
2024/02/08 03:02:38;;;;;;;14.00;5.60;;;;;;;1.56;100.00;100442.44;6086555;19;20475;-74
2024/02/08 03:04:44;;;;;;;10.98;6.10;;;;;;;1.56;100.00;100437.28;6086101;19;20015;-74
2024/02/08 03:06:53;;;;;;;9.60;4.97;;;;;;;1.54;100.00;100433.84;6084762;19;20015;-74
2024/02/08 03:08:58;;;;;;;9.55;5.32;;;;;;;1.63;100.00;100423.38;6087801;19;20065;-73
2024/02/08 03:11:03;;;;;;;11.77;5.93;;;;;;;1.67;100.00;100424.22;6087654;19;20017;-73
2024/02/08 03:13:11;;;;;;;18.30;6.07;;;;;;;1.69;100.00;100417.28;6085009;19;20050;-74
2024/02/08 03:15:17;;;;;;;11.80;6.13;;;;;;;1.70;100.00;100414.66;6084580;19;20031;-73
2024/02/08 03:17:22;;;;;;;9.93;4.80;;;;;;;1.74;100.00;100415.50;6089122;19;20144;-74
2024/02/08 03:19:34;;;;;;;18.13;6.43;;;;;;;1.77;100.00;100414.63;6084255;19;20024;-73
2024/02/08 03:21:41;;;;;;;13.65;6.53;;;;;;;1.78;100.00;100416.31;6082490;19;20002;-73
2024/02/08 03:23:49;;;;;;;10.70;5.13;;;;;;;1.79;100.00;100420.63;6085178;19;20038;-71
2024/02/08 03:25:56;;;;;;;11.75;5.93;;;;;;;1.79;100.00;100418.03;6087106;19;20522;-72
2024/02/08 03:28:04;;;;;;;12.73;7.07;;;;;;;1.83;100.00;100417.13;6085126;19;20066;-72
2024/02/08 03:30:19;;;;;;;8.75;6.47;;;;;;;1.88;100.00;100410.16;6084525;19;20042;-72
2024/02/08 03:32:25;;;;;;;10.95;6.10;;;;;;;1.88;100.00;100408.41;6085396;19;20018;-72
2024/02/08 03:34:35;;;;;;;10.55;6.25;;;;;;;1.88;100.00;100411.00;6085058;19;20495;-72
2024/02/08 03:36:41;;;;;;;11.75;6.18;;;;;;;1.91;100.00;100417.88;6085358;19;20022;-72
2024/02/08 03:38:47;;;;;;;10.45;6.40;;;;;;;1.94;100.00;100430.81;6083470;19;20432;-73
2024/02/08 03:40:52;;;;;;;10.00;5.43;;;;;;;1.92;100.00;100429.97;6086504;19;20039;-74
2024/02/08 03:42:57;;;;;;;11.07;6.03;;;;;;;1.94;100.00;100429.06;6084215;19;19998;-71
2024/02/08 03:45:06;;;;;;;7.93;6.05;;;;;;;1.94;100.00;100425.63;6079857;19;20007;-71
2024/02/08 03:47:17;;;;;;;11.95;5.88;;;;;;;1.93;100.00;100418.75;6084081;19;20474;-72
2024/02/08 03:49:24;;;;;;;10.55;6.53;;;;;;;1.91;100.00;100408.38;6084145;19;20537;-72
2024/02/08 03:51:31;;;;;;;13.13;6.93;;;;;;;1.92;100.00;100393.69;6084911;19;20716;-73
2024/02/08 03:53:36;;;;;;;9.48;6.55;;;;;;;1.91;100.00;100386.78;6085084;19;20546;-72
2024/02/08 03:55:43;;;;;;;16.48;7.22;;;;;;;1.97;100.00;100385.00;6086324;19;20022;-72
2024/02/08 03:57:49;;;;;;;11.15;6.53;;;;;;;1.98;100.00;100378.09;6086795;19;20002;-73
2024/02/08 03:59:54;;;;;;;10.73;5.80;;;;;;;2.00;100.00;100368.53;6083325;19;20010;-73
2024/02/08 04:02:03;;;;;;;10.45;5.88;;;;;;;2.02;100.00;100364.19;6083803;19;20090;-72
2024/02/08 04:04:16;;;;;;;11.13;5.68;;;;;;;2.02;100.00;100353.81;6083213;19;20010;-74
2024/02/08 04:06:36;;;;;;;15.80;7.50;;;;;;;2.14;100.00;100343.31;6084732;19;20543;-73
2024/02/08 04:09:06;;;;;;;9.18;5.47;;;;;;;2.05;100.00;100343.41;6085401;19;20010;-72
2024/02/08 04:55:11;;;;;;;12.52;6.78;;;;;;;1.74;100.00;100363.69;6079798;19;20112;-72
2024/02/08 04:57:17;;;;;;;12.20;7.30;;;;;;;1.74;100.00;100361.97;6081561;19;20010;-72
2024/02/08 04:59:22;;;;;;;11.45;6.60;;;;;;;1.77;100.00;100349.84;6084053;19;20010;-72
2024/02/08 05:01:28;;;;;;;10.32;6.80;;;;;;;1.89;100.00;100354.88;6081412;19;20221;-74
2024/02/08 05:03:36;;;;;;;10.77;6.72;;;;;;;1.89;100.00;100360.91;6083748;19;20011;-74
2024/02/08 05:05:43;;;;;;;12.52;6.75;;;;;;;1.92;100.00;100354.81;6084310;19;20013;-72
2024/02/08 05:07:52;;;;;;;13.02;7.05;;;;;;;1.99;100.00;100340.91;6074255;19;20010;-73
2024/02/08 05:09:58;;;;;;;12.93;7.57;;;;;;;2.07;100.00;100341.66;6084373;19;20432;-73
2024/02/08 05:12:05;;;;;;;10.77;6.50;;;;;;;2.08;100.00;100353.75;6082636;19;20441;-74
2024/02/08 05:14:10;;;;;;;15.70;7.38;;;;;;;2.04;100.00;100353.81;6084510;19;20077;-73
2024/02/08 05:16:17;;;;;;;11.90;7.63;;;;;;;2.08;100.00;100352.88;6081540;19;20523;-72
2024/02/08 05:18:22;;;;;;;19.33;7.57;;;;;;;2.10;100.00;100349.38;6081540;19;20369;-72
2024/02/08 05:20:29;;;;;;;20.38;8.10;;;;;;;2.22;100.00;100339.75;6082688;19;20003;-72
2024/02/08 05:22:34;;;;;;;12.18;7.82;;;;;;;2.17;100.00;100327.69;6082083;19;20074;-72
2024/02/08 05:24:42;;;;;;;11.60;6.32;;;;;;;2.22;100.00;100325.06;6080180;19;20403;-73
2024/02/08 05:26:49;;;;;;;19.17;7.07;;;;;;;2.24;100.00;100325.88;6080694;19;20498;-73
2024/02/08 05:28:57;;;;;;;14.82;7.45;;;;;;;2.23;100.00;100318.97;6083880;19;20009;-74
2024/02/08 05:30:59;;;;;;;17.38;7.38;;;;;;;2.17;100.00;100317.34;6082402;19;20479;-73
2024/02/08 05:33:05;;;;;;;17.42;8.02;;;;;;;2.17;100.00;100319.91;6082686;19;20007;-73
2024/02/08 05:35:13;;;;;;;14.70;7.78;;;;;;;2.22;100.00;100308.66;6080661;19;20027;-75
2024/02/08 05:37:23;;;;;;;14.10;7.95;;;;;;;2.22;100.00;100313.84;6083310;19;20019;-74
2024/02/08 05:39:29;;;;;;;15.98;7.95;;;;;;;2.27;100.00;100314.63;6079794;19;20336;-75
2024/02/08 05:41:44;;;;;;;20.73;8.23;;;;;;;2.32;100.00;100310.22;6082306;19;20489;-73
2024/02/08 05:43:51;;;;;;;13.43;5.85;;;;;;;2.29;100.00;100316.31;6086153;19;20042;-75
2024/02/08 05:45:57;;;;;;;20.42;8.10;;;;;;;2.31;100.00;100322.31;6088185;19;20012;-72
2024/02/08 05:48:05;;;;;;;15.93;6.88;;;;;;;2.32;100.00;100326.63;6088436;19;20023;-71
2024/02/08 05:50:21;;;;;;;14.63;7.40;;;;;;;2.36;100.00;100320.50;6087638;19;20080;-72
2024/02/08 05:52:31;;;;;;;21.92;8.63;;;;;;;2.38;100.00;100325.69;6086617;19;20041;-76
2024/02/08 05:54:36;;;;;;;14.15;6.97;;;;;;;2.41;100.00;100328.22;6086775;19;20086;-71
2024/02/08 05:56:48;;;;;;;12.75;6.82;;;;;;;2.35;100.00;100323.13;6084478;19;22474;-72
2024/02/08 05:59:01;;;;;;;12.40;5.63;;;;;;;2.43;100.00;100316.09;6086926;19;20678;-74
2024/02/08 06:01:16;;;;;;;10.68;5.47;;;;;;;2.47;100.00;100302.19;6087429;19;20006;-73
2024/02/08 06:03:27;;;;;;;13.48;5.70;;;;;;;2.41;100.00;100300.53;6089241;19;20374;-74
2024/02/08 06:05:34;;;;;;;17.02;6.32;;;;;;;2.43;100.00;100295.34;6088570;19;20367;-72
2024/02/08 06:07:44;;;;;;;15.02;6.57;;;;;;;2.49;100.00;100296.97;6089554;19;20021;-72
2024/02/08 06:10:07;;;;;;;14.57;6.72;;;;;;;2.47;100.00;100286.63;6089168;19;20050;-73
2024/02/08 06:12:27;;;;;;;15.35;7.20;;;;;;;2.49;100.00;100277.09;5983951;19;2004863;-72
2024/02/08 06:14:38;;;;;;;18.67;7.47;;;;;;;2.44;100.00;100272.84;6087281;19;20772;-72
2024/02/08 06:16:48;;;;;;;17.63;8.23;;;;;;;2.52;100.00;100263.22;6086194;19;20006;-75
2024/02/08 06:18:50;;;;;;;16.33;8.50;;;;;;;2.51;100.00;100253.72;6085208;19;20002;-73
2024/02/08 06:20:59;;;;;;;14.50;8.02;;;;;;;2.55;100.00;100251.03;6085486;19;20066;-72
2024/02/08 06:23:16;;;;;;;13.88;6.63;;;;;;;2.59;100.00;100239.75;6086898;19;20014;-73
2024/02/08 06:25:27;;;;;;;14.15;7.15;;;;;;;2.60;100.00;100236.25;6086568;19;20013;-72
2024/02/08 06:27:36;;;;;;;23.08;8.25;;;;;;;2.57;100.00;100233.72;6088920;19;20010;-71
2024/02/08 06:29:46;;;;;;;17.13;7.88;;;;;;;2.58;100.00;100230.25;6087323;19;20014;-73
2024/02/08 06:32:00;;;;;;;19.33;6.90;;;;;;;2.56;100.00;100211.28;6084371;19;20504;-72
2024/02/08 06:36:33;;;;;;;12.98;6.97;;;;;;;2.64;100.00;100234.47;5983962;19;2004668;-73
2024/02/08 06:38:51;;;;;;;20.40;7.72;;;;;;;2.61;100.00;100240.56;6086595;19;20011;-73
2024/02/08 06:40:56;;;;;;;19.40;7.82;;;;;;;2.63;100.00;100244.00;6087283;19;20464;-74
2024/02/08 06:45:48;;;;;;;19.25;8.32;;;;;;;2.58;100.00;100253.59;6087506;19;20011;-72
2024/02/08 07:37:29;;;;;;;18.48;10.13;;;;;;;2.78;100.00;100171.97;6083870;19;20007;-74
2024/02/08 07:39:34;;;;;;;17.85;9.77;;;;;;;2.75;100.00;100162.50;6087349;19;20002;-71
2024/02/08 07:41:53;;;;;;;26.88;11.18;;;;;;;2.82;100.00;100163.25;6082398;19;20017;-72
2024/02/08 07:43:59;;;;;;;20.15;10.65;;;;;;;2.78;100.00;100159.84;6084224;19;20010;-72
2024/02/08 07:46:10;;;;;;;24.92;11.85;;;;;;;2.82;100.00;100168.44;6083886;19;20324;-72
2024/02/08 07:48:37;;;;;;;23.58;10.63;;;;;;;2.81;100.00;100162.38;6087858;19;20009;-72
2024/02/08 07:50:48;;;;;;;17.77;9.02;;;;;;;2.84;100.00;100164.03;6086393;19;20015;-72
2024/02/08 07:52:58;;;;;;;21.05;9.25;;;;;;;2.91;100.00;100170.81;6082881;19;20442;-74
2024/02/08 07:57:25;;;;;;;30.55;9.57;;;;;;;2.93;100.00;100171.66;6084715;19;20006;-72
2024/02/08 07:59:35;;;;;;;19.52;8.95;;;;;;;2.92;100.00;100169.94;6085254;19;20026;-72
2024/02/08 08:01:43;;;;;;;16.60;8.23;;;;;;;2.98;100.00;100158.59;6084531;19;20409;-72
2024/02/08 08:03:56;;;;;;;23.00;9.20;;;;;;;2.94;100.00;100157.78;6083727;19;20010;-71
2024/02/08 08:06:07;;;;;;;19.85;7.65;;;;;;;2.94;100.00;100151.75;6082142;19;20021;-72
2024/02/08 08:08:24;;;;;;;12.48;6.50;;;;;;;2.95;100.00;100146.53;6083439;19;20081;-74
2024/02/08 08:10:38;;;;;;;24.02;8.95;;;;;;;2.95;100.00;100137.88;6085882;19;20507;-71
2024/02/08 08:12:46;;;;;;;14.73;7.65;;;;;;;3.00;100.00;100129.13;6088056;19;20010;-71
2024/02/08 08:15:13;;;;;;;16.90;9.80;;;;;;;3.06;100.00;100135.94;6084599;19;20010;-72
2024/02/08 08:17:31;;;;;;;17.88;8.48;;;;;;;3.02;100.00;100132.53;5980663;19;2004749;-73
2024/02/08 08:19:44;;;;;;;19.23;9.77;;;;;;;3.08;100.00;100129.81;6082251;19;20374;-71
2024/02/08 08:22:03;;;;;;;23.05;8.23;;;;;;;3.08;100.00;100128.94;6081373;19;20226;-73
2024/02/08 08:24:25;;;;;;;21.35;8.55;;;;;;;3.07;100.00;100122.91;6085669;19;20344;-76
2024/02/08 08:26:38;;;;;;;;;;;;;;;3.07;100.00;100115.13;6087270;19;20003;-71
2024/02/08 08:28:52;;;;;;;14.18;6.47;;;;;;;3.15;100.00;100111.50;6083288;19;20301;-72
2024/02/08 08:31:00;;;;;;;;;;;;;;;3.10;100.00;100098.63;6082528;19;20555;-71
2024/02/08 08:33:58;;;;;;;10.85;6.70;;;;;;;3.16;100.00;100098.50;6081720;19;20294;-70
2024/02/08 08:35:47;;;;;;;15.80;6.18;;;;;;;3.19;100.00;100095.84;5982478;19;2004664;-72
2024/02/08 08:38:13;;;;;;;12.77;5.90;;;;;;;3.21;100.00;100091.47;6084214;19;20042;-71
2024/02/08 08:40:37;;;;;;;19.42;6.30;;;;;;;3.18;100.00;100082.88;6085453;19;20475;-72
2024/02/08 08:42:49;;;;;;;13.90;6.35;;;;;;;3.19;100.00;100076.81;6085387;19;20232;-71
2024/02/08 08:44:59;;;;;;;12.35;5.70;;;;;;;3.23;100.00;100071.50;6086139;19;20039;-72
2024/02/08 08:47:06;;;;;;;12.77;6.22;;;;;;;3.23;100.00;100065.47;6082653;19;20394;-73
2024/02/08 08:49:14;;;;;;;14.02;7.05;;;;;;;3.19;100.00;100066.44;6085599;19;20010;-71
2024/02/08 08:51:30;;;;;;;12.02;6.00;;;;;;;3.24;100.00;100056.81;6080282;19;20010;-72
2024/02/08 08:53:41;;;;;;;11.32;5.03;;;;;;;3.20;100.00;100061.19;5999173;19;2005221;-71
2024/02/08 08:55:49;;;;;;;23.15;6.05;;;;;;;3.25;100.00;100058.50;6080802;19;20435;-70
2024/02/08 08:58:00;;;;;;;9.07;5.57;;;;;;;3.29;100.00;100055.81;6082076;19;20006;-71
2024/02/08 09:00:09;;;;;;;12.35;6.70;;;;;;;3.32;100.00;100052.28;6082702;19;20014;-71
2024/02/08 09:02:14;;;;;;;24.73;5.38;;;;;;;3.30;100.00;100054.91;6083485;19;20349;-70
2024/02/08 09:04:32;;;;;;;14.77;6.60;;;;;;;3.27;100.00;100054.13;6082265;19;20020;-70
2024/02/08 09:06:42;;;;;;;8.65;4.35;;;;;;;3.30;100.00;100054.06;6081410;19;20035;-70
2024/02/08 09:08:55;;;;;;;8.25;4.47;;;;;;;3.25;100.00;100055.91;6084597;19;20035;-70
2024/02/08 09:11:01;;;;;;;8.88;5.38;;;;;;;3.21;100.00;100049.94;6085054;19;20074;-70
2024/02/08 09:13:09;;;;;;;16.98;5.15;;;;;;;3.26;100.00;100053.25;6084828;19;20032;-70
2024/02/08 09:15:26;;;;;;;12.45;4.75;;;;;;;3.25;100.00;100050.72;6086330;19;20019;-72
2024/02/08 09:17:51;;;;;;;11.05;5.30;;;;;;;3.24;100.00;100052.44;6085496;19;20007;-75
2024/02/08 09:19:59;;;;;;;10.48;4.78;;;;;;;3.21;100.00;100052.53;5980247;19;2004733;-73
2024/02/08 09:22:10;;;;;;;9.65;4.63;;;;;;;3.25;100.00;100051.56;6081071;19;20737;-71
2024/02/08 09:24:22;;;;;;;12.10;5.65;;;;;;;3.26;100.00;100042.00;6083951;19;20530;-72
2024/02/08 09:26:25;;;;;;;17.77;6.05;;;;;;;3.31;100.00;100045.34;6084475;19;20009;-72
2024/02/08 09:28:35;;;;;;;;;;;;;;;3.25;100.00;100035.13;6082233;19;20516;-71
2024/02/08 09:30:38;;;;;;;18.33;5.03;;;;;;;3.29;100.00;100039.34;6084699;19;20456;-72
2024/02/08 09:32:47;;;;;;;16.45;5.97;;;;;;;3.27;100.00;100036.81;6086538;19;20043;-72
2024/02/08 09:34:54;;;;;;;7.60;4.88;;;;;;;3.32;100.00;100041.91;6082467;19;20007;-72
2024/02/08 09:36:59;;;;;;;8.32;4.43;;;;;;;3.25;100.00;100027.34;6082716;19;20078;-74
2024/02/08 09:39:14;;;;;;;18.65;5.90;;;;;;;3.30;100.00;100028.09;6082741;19;20353;-73
2024/02/08 09:41:23;;;;;;;13.43;5.50;;;;;;;3.28;100.00;100019.47;6081685;19;20328;-72
2024/02/08 09:43:32;;;;;;;9.27;5.35;;;;;;;3.29;100.00;100010.78;6082108;19;20456;-73
2024/02/08 09:45:44;;;;;;;9.88;5.10;;;;;;;3.30;100.00;100002.97;6084344;19;20014;-72
2024/02/08 09:47:51;;;;;;;10.73;5.05;;;;;;;3.29;100.00;100000.41;6080005;19;20479;-72
2024/02/08 09:50:00;;;;;;;14.43;5.63;;;;;;;3.24;100.00;99997.09;6083991;19;20539;-73
2024/02/08 09:52:19;;;;;;;16.85;5.55;;;;;;;3.28;100.00;99988.31;6081910;19;20551;-72
2024/02/08 09:54:31;;;;;;;10.85;5.78;;;;;;;3.35;100.00;99974.28;6079084;19;20358;-73
2024/02/08 09:56:39;;;;;;;17.85;6.30;;;;;;;3.35;100.00;99976.91;6080726;19;20021;-70
2024/02/08 09:58:55;;;;;;;15.10;5.75;;;;;;;3.34;100.00;99969.13;6076913;19;20572;-72
2024/02/08 10:01:30;;;;;;;12.52;5.35;;;;;;;3.38;100.00;99968.19;6080504;19;20014;-73
2024/02/08 10:03:36;;;;;;;14.32;5.22;;;;;;;3.36;100.00;99964.75;6080542;19;20013;-72
2024/02/08 10:05:57;;;;;;;11.57;4.93;;;;;;;3.45;100.00;99962.78;6080251;19;20455;-73
2024/02/08 10:08:05;;;;;;;10.57;5.13;;;;;;;3.44;100.00;99960.22;5977276;19;2005101;-73
2024/02/08 10:10:20;;;;;;;14.20;5.57;;;;;;;3.41;100.00;99936.94;6081996;19;20343;-70
2024/02/08 10:12:30;;;;;;;10.52;5.82;;;;;;;3.40;100.00;99912.72;6082033;19;20468;-73
2024/02/08 10:14:41;;;;;;;12.13;5.03;;;;;;;3.41;100.00;99922.19;6080411;19;20007;-70
2024/02/08 10:16:47;;;;;;;8.95;4.85;;;;;;;3.42;100.00;99923.03;6079767;19;20360;-70
2024/02/08 10:19:02;;;;;;;10.50;5.53;;;;;;;3.44;100.00;99932.50;6079065;19;20019;-71
2024/02/08 10:21:12;;;;;;;14.55;5.97;;;;;;;3.43;100.00;99946.38;6080441;19;20017;-73
2024/02/08 10:28:01;;;;;;;16.45;6.22;;;;;;;3.41;100.00;99935.19;6080008;19;20365;-71
2024/02/08 10:30:08;;;;;;;15.77;6.70;;;;;;;3.43;100.00;99941.19;6083387;19;20002;-73
2024/02/08 10:32:14;;;;;;;10.55;5.28;;;;;;;3.41;100.00;99932.59;6081931;19;20082;-71
2024/02/08 10:34:33;;;;;;;18.95;5.20;;;;;;;3.38;100.00;99924.88;6083882;19;20447;-74
2024/02/08 10:36:39;;;;;;;14.95;5.63;;;;;;;3.33;100.00;99913.75;6087961;19;20018;-74
2024/02/08 10:38:55;;;;;;;9.32;5.05;;;;;;;3.35;100.00;99917.16;6087077;19;20015;-74
2024/02/08 10:41:11;;;;;;;10.98;5.75;;;;;;;3.36;100.00;99933.59;6088430;19;20018;-73
2024/02/08 10:43:24;;;;;;;12.90;5.50;;;;;;;3.43;100.00;99946.38;6088567;19;20578;-72
2024/02/08 10:45:43;;;;;;;11.65;6.70;;;;;;;3.43;100.00;99932.56;6089554;19;20006;-73
2024/02/08 10:47:50;;;;;;;13.02;5.95;;;;;;;3.41;100.00;99919.59;6088890;19;20023;-73
2024/02/08 10:50:02;;;;;;;10.25;5.38;;;;;;;3.38;100.00;99914.50;6089212;19;20015;-73
2024/02/08 10:52:11;;;;;;;15.30;6.32;;;;;;;3.39;100.00;99934.34;6083935;19;20021;-73
2024/02/08 10:54:23;;;;;;;12.60;6.65;;;;;;;3.35;100.00;99948.34;6087926;19;20011;-71
2024/02/08 10:56:40;;;;;;;10.10;5.72;;;;;;;3.45;100.00;99955.00;6086491;19;20011;-72
2024/02/08 11:01:32;;;;;;;15.07;6.93;;;;;;;3.48;100.00;99931.53;6087104;19;20507;-72
2024/02/08 11:03:42;;;;;;;12.95;4.82;;;;;;;3.43;100.00;99929.97;6089153;19;20366;-73
2024/02/08 11:06:00;;;;;;;10.75;6.10;;;;;;;3.39;100.00;99936.94;6087724;19;20480;-72
2024/02/08 11:08:23;;;;;;;13.15;5.38;;;;;;;3.43;100.00;99930.81;6087995;19;20023;-75
2024/02/08 11:10:32;;;;;;;12.32;5.97;;;;;;;3.45;100.00;99929.03;5975805;19;2004541;-73
2024/02/08 11:12:44;;;;;;;13.60;6.00;;;;;;;3.41;100.00;99911.81;6085275;19;20010;-74
2024/02/08 11:14:53;;;;;;;15.00;5.67;;;;;;;3.41;100.00;99901.41;6086714;19;20018;-74
2024/02/08 11:17:04;;;;;;;11.88;6.20;;;;;;;3.40;100.00;99902.31;6086013;19;20015;-75
2024/02/08 11:19:16;;;;;;;10.43;6.18;;;;;;;3.41;100.00;99896.22;6084302;19;20010;-72
2024/02/08 11:21:42;;;;;;;12.60;6.32;;;;;;;3.40;100.00;99883.28;6086041;19;20481;-72
2024/02/08 11:23:53;;;;;;;19.50;6.70;;;;;;;3.34;100.00;99866.09;6087917;19;20474;-73
2024/02/08 11:26:10;;;;;;;14.77;5.93;;;;;;;3.38;100.00;99861.69;6088394;19;20519;-71
2024/02/08 11:28:24;;;;;;;15.68;7.30;;;;;;;3.38;100.00;99848.72;6088251;19;20081;-73
2024/02/08 11:30:35;;;;;;;9.27;5.50;;;;;;;3.36;100.00;99834.91;6088405;19;20457;-73
2024/02/08 11:32:42;;;;;;;18.23;6.68;;;;;;;3.32;100.00;99830.69;6087160;19;20021;-74
2024/02/08 11:34:54;;;;;;;13.32;6.10;;;;;;;3.30;100.00;99825.56;6086488;19;20471;-73
2024/02/08 11:37:15;;;;;;;9.82;5.30;;;;;;;3.32;100.00;99823.78;6088271;19;20396;-73
2024/02/08 11:39:30;;;;;;;16.88;7.78;;;;;;;3.34;100.00;99819.38;6087661;19;20018;-71
2024/02/08 11:41:42;;;;;;;12.38;5.43;;;;;;;3.37;100.00;99811.53;6085833;19;20651;-72
2024/02/08 11:44:02;;;;;;;12.55;5.25;;;;;;;3.39;100.00;99807.09;6086807;19;20535;-72
2024/02/08 11:46:18;;;;;;;16.38;6.80;;;;;;;3.44;100.00;99797.44;6087078;19;20043;-73
2024/02/08 11:48:41;;;;;;;13.75;6.53;;;;;;;3.30;100.00;99794.41;6088173;19;20003;-72